Latest Weather Observations for North Head

IDN60901

Issued at 1:35 pm EST Friday 25 April 2014 (issued every 10 minutes, with the page automatically refreshed every 10 minutes)

About weather observations | Map of Sydney area stations | Latest observations for Sydney area | Other Formats
Station Details ID: 066197 Name: NORTH HEAD Lat: -33.82 Lon: 151.30 Height: 90.0 m
Data from the previous 72 hours. | See also: Recent months for locations in New South Wales
Date/Time
EST
Tmp

°C
App
Tmp
°C
Dew
Point
°C
Rel
Hum
%
Delta-T

°C
Wind Press
QNH
hPa
Press
MSL
hPa
Rain
since
9 am
mm
Dir
 
Spd
km/h
Gust
km/h
Spd
kts
Gust
kts
25/01:30pm - - - - - NE 15 24 8 13 - - -
25/01:00pm - - - - - NE 15 26 8 14 - - -
25/12:30pm - - - - - N 13 24 7 13 - - -
25/12:00pm - - - - - N 9 15 5 8 - - -
25/11:30am - - - - - N 13 19 7 10 - - -
25/11:00am - - - - - E 20 33 11 18 - - -
25/10:30am - - - - - E 20 33 11 18 - - -
25/10:00am - - - - - E 22 35 12 19 - - -
25/09:30am - - - - - E 26 37 14 20 - - -
25/09:00am - - - - - ESE 28 37 15 20 - - -
25/08:30am - - - - - ESE 28 41 15 22 - - -
25/08:00am - - - - - E 26 37 14 20 - - -
25/07:30am - - - - - ESE 32 43 17 23 - - -
25/07:00am - - - - - ESE 28 43 15 23 - - -
25/06:30am - - - - - ESE 24 35 13 19 - - -
25/06:00am - - - - - SE 22 35 12 19 - - -
25/05:30am - - - - - ESE 22 37 12 20 - - -
25/05:00am - - - - - SE 26 41 14 22 - - -
25/04:30am - - - - - SE 28 44 15 24 - - -
25/04:15am - - - - - SE 28 46 15 25 - - -
25/04:00am - - - - - SE 30 43 16 23 - - -
25/03:30am - - - - - SE 24 43 13 23 - - -
25/03:00am - - - - - SE 24 43 13 23 - - -
25/02:30am - - - - - SSE 28 43 15 23 - - -
25/02:02am - - - - - SE 28 48 15 26 - - -
25/02:00am - - - - - SE 26 48 14 26 - - -
25/01:35am - - - - - SSE 28 48 15 26 - - -
25/01:30am - - - - - SSE 26 44 14 24 - - -
25/01:00am - - - - - SE 24 41 13 22 - - -
25/12:36am - - - - - SSE 28 48 15 26 - - -
25/12:30am - - - - - SSE 28 41 15 22 - - -
25/12:00am - - - - - SE 28 48 15 26 - - -
 
Date/Time
EST
Tmp

°C
App
Tmp
°C
Dew
Point
°C
Rel
Hum
%
Delta-T

°C
Wind Press
QNH
hPa
Press
MSL
hPa
Rain
since
9 am
mm
Dir
 
Spd
km/h
Gust
km/h
Spd
kts
Gust
kts
24/11:31pm - - - - - SSE 28 48 15 26 - - -
24/11:30pm - - - - - SSE 30 48 16 26 - - -
24/11:00pm - - - - - SSE 30 44 16 24 - - -
24/10:31pm - - - - - SSE 28 48 15 26 - - -
24/10:30pm - - - - - SSE 30 48 16 26 - - -
24/10:00pm - - - - - SSE 35 50 19 27 - - -
24/09:58pm - - - - - SSE 33 50 18 27 - - -
24/09:30pm - - - - - S 13 32 7 17 - - -
24/09:00pm - - - - - S 13 22 7 12 - - -
24/08:30pm - - - - - S 11 17 6 9 - - -
24/08:00pm - - - - - S 11 17 6 9 - - -
24/07:30pm - - - - - S 11 17 6 9 - - -
24/07:00pm - - - - - S 7 9 4 5 - - -
24/06:30pm - - - - - SE 7 9 4 5 - - -
24/06:00pm - - - - - SE 11 17 6 9 - - -
24/05:30pm - - - - - S 13 26 7 14 - - -
24/05:00pm - - - - - NW 4 9 2 5 - - -
24/04:30pm - - - - - WNW 2 4 1 2 - - -
24/04:00pm - - - - - NE 4 6 2 3 - - -
24/03:30pm - - - - - E 7 9 4 5 - - -
24/03:00pm - - - - - E 6 9 3 5 - - -
24/02:30pm - - - - - ESE 7 11 4 6 - - -
24/02:00pm - - - - - SE 4 7 2 4 - - -
24/01:30pm - - - - - ESE 7 13 4 7 - - -
24/01:00pm - - - - - WNW 15 22 8 12 - - -
24/12:30pm - - - - - WNW 17 28 9 15 - - -
24/12:00pm - - - - - WNW 15 22 8 12 - - -
24/11:30am - - - - - WNW 11 17 6 9 - - -
24/11:00am - - - - - WNW 11 19 6 10 - - -
24/10:30am - - - - - WNW 9 15 5 8 - - -
24/10:00am - - - - - NNW 7 13 4 7 - - -
24/09:30am - - - - - N 7 11 4 6 - - -
24/09:00am - - - - - N 7 9 4 5 - - -
24/08:30am - - - - - NW 6 7 3 4 - - -
24/08:00am - - - - - NW 9 13 5 7 - - -
24/07:30am - - - - - WNW 11 15 6 8 - - -
24/07:00am - - - - - WNW 13 17 7 9 - - -
24/06:30am - - - - - WNW 15 19 8 10 - - -
24/06:00am - - - - - NW 11 15 6 8 - - -
24/05:30am - - - - - WNW 9 11 5 6 - - -
24/05:00am - - - - - W 11 15 6 8 - - -
24/04:30am - - - - - NW 11 19 6 10 - - -
24/04:00am - - - - - NW 13 15 7 8 - - -
24/03:30am - - - - - NW 11 13 6 7 - - -
24/03:00am - - - - - WNW 13 15 7 8 - - -
24/02:30am - - - - - NW 11 13 6 7 - - -
24/02:00am - - - - - NNW 11 20 6 11 - - -
24/01:30am - - - - - NNW 13 17 7 9 - - -
24/01:00am - - - - - NW 13 19 7 10 - - -
24/12:30am - - - - - N 15 19 8 10 - - -
24/12:00am - - - - - N 15 20 8 11 - - -
 
Date/Time
EST
Tmp

°C
App
Tmp
°C
Dew
Point
°C
Rel
Hum
%
Delta-T

°C
Wind Press
QNH
hPa
Press
MSL
hPa
Rain
since
9 am
mm
Dir
 
Spd
km/h
Gust
km/h
Spd
kts
Gust
kts
23/11:30pm - - - - - N 15 19 8 10 - - -
23/11:00pm - - - - - N 15 22 8 12 - - -
23/10:30pm - - - - - N 17 22 9 12 - - -
23/10:00pm - - - - - N 17 20 9 11 - - -
23/09:30pm - - - - - N 17 22 9 12 - - -
23/09:00pm - - - - - N 13 17 7 9 - - -
23/08:30pm - - - - - N 11 15 6 8 - - -
23/08:00pm - - - - - N 11 13 6 7 - - -
23/07:30pm - - - - - N 11 13 6 7 - - -
23/07:00pm - - - - - NNE 9 13 5 7 - - -
23/06:30pm - - - - - NNE 11 15 6 8 - - -
23/06:00pm - - - - - NE 11 13 6 7 - - -
23/05:30pm - - - - - NE 9 11 5 6 - - -
23/05:00pm - - - - - ENE 6 9 3 5 - - -
23/04:30pm - - - - - E 7 9 4 5 - - -
23/04:00pm - - - - - ESE 9 13 5 7 - - -
23/03:30pm - - - - - ESE 9 15 5 8 - - -
23/03:00pm - - - - - SE 9 13 5 7 - - -
23/02:30pm - - - - - ESE 7 11 4 6 - - -
23/02:00pm - - - - - ESE 7 11 4 6 - - -
23/01:30pm - - - - - SE 6 9 3 5 - - -
23/01:00pm - - - - - SW 6 9 3 5 - - -
23/12:30pm - - - - - W 9 13 5 7 - - -
23/12:00pm - - - - - WSW 9 13 5 7 - - -
23/11:30am - - - - - WSW 9 13 5 7 - - -
23/11:00am - - - - - W 11 17 6 9 - - -
23/10:30am - - - - - W 11 17 6 9 - - -
23/10:00am - - - - - WNW 15 19 8 10 - - -
23/09:30am - - - - - W 15 20 8 11 - - -
23/09:00am - - - - - W 15 20 8 11 - - -
23/08:30am - - - - - W 15 19 8 10 - - -
23/08:00am - - - - - W 13 19 7 10 - - -
23/07:30am - - - - - W 15 19 8 10 - - -
23/07:00am - - - - - W 17 24 9 13 - - -
23/06:30am - - - - - W 17 20 9 11 - - -
23/06:00am - - - - - W 19 22 10 12 - - -
23/05:30am - - - - - W 19 22 10 12 - - -
23/05:00am - - - - - W 17 19 9 10 - - -
23/04:30am - - - - - W 17 22 9 12 - - -
23/04:00am - - - - - W 15 19 8 10 - - -
23/03:30am - - - - - W 17 20 9 11 - - -
23/03:00am - - - - - W 15 20 8 11 - - -
23/02:30am - - - - - W 15 17 8 9 - - -
23/02:00am - - - - - W 11 13 6 7 - - -
23/01:30am - - - - - W 17 20 9 11 - - -
23/01:00am - - - - - W 15 17 8 9 - - -
23/12:30am - - - - - W 15 19 8 10 - - -
23/12:00am - - - - - W 15 19 8 10 - - -
 
Date/Time
EST
Tmp

°C
App
Tmp
°C
Dew
Point
°C
Rel
Hum
%
Delta-T

°C
Wind Press
QNH
hPa
Press
MSL
hPa
Rain
since
9 am
mm
Dir
 
Spd
km/h
Gust
km/h
Spd
kts
Gust
kts
22/11:30pm - - - - - W 15 17 8 9 - - -
22/11:00pm - - - - - W 17 20 9 11 - - -
22/10:30pm - - - - - W 15 17 8 9 - - -
22/10:00pm - - - - - W 13 15 7 8 - - -
22/09:30pm - - - - - WNW 13 19 7 10 - - -
22/09:00pm - - - - - WNW 13 19 7 10 - - -
22/08:30pm - - - - - NW 11 17 6 9 - - -
22/08:00pm - - - - - WNW 15 20 8 11 - - -
22/07:30pm - - - - - NW 11 13 6 7 - - -
22/07:00pm - - - - - NW 9 15 5 8 - - -
22/06:30pm - - - - - NW 9 11 5 6 - - -
22/06:00pm - - - - - NW 7 9 4 5 - - -
22/05:30pm - - - - - NNW 6 9 3 5 - - -
22/05:00pm - - - - - NNW 6 7 3 4 - - -
22/04:30pm - - - - - WNW 4 6 2 3 - - -
22/04:00pm - - - - - WNW 6 7 3 4 - - -
22/03:30pm - - - - - WNW 7 11 4 6 - - -
22/03:00pm - - - - - SSW 4 6 2 3 - - -
22/02:30pm - - - - - NW 6 9 3 5 - - -
22/02:00pm - - - - - WNW 9 13 5 7 - - -

Latest Capital City Observations: Canberra | Sydney | Melbourne | Brisbane | Adelaide | Perth | Hobart | Darwin

Other Formats:

Comma delimited format used in spreadsheet applications
http://www.bom.gov.au/fwo/IDN60901/IDN60901.95768.axf

JavaScript Object Notation format (JSON) in row-major order
http://www.bom.gov.au/fwo/IDN60901/IDN60901.95768.json